Time,TemperatureF,DewpointF,PressureIn,WindDirection,WindDirectionDegrees,WindSpeedMPH,WindSpeedGustMPH,Humidity,HourlyPrecipIn,Conditions,Clouds,dailyrainin,SoftwareType,DateUTC
2013-03-12 00:05:00,49.3,48.0,30.11,SSE,156,6.0,8.0,94,0.00,,,0.00,weatherlink.com 1.10,2013-03-12 07:05:00,
2013-03-12 00:20:00,49.2,48.0,30.11,SSW,198,4.0,6.0,95,0.00,,,0.00,weatherlink.com 1.10,2013-03-12 07:20:00,
2013-03-12 00:35:00,49.3,48.0,30.12,SSW,204,4.0,6.0,95,0.00,,,0.00,weatherlink.com 1.10,2013-03-12 07:35:00,
2013-03-12 00:50:00,49.4,48.0,30.12,South,176,1.0,6.0,95,0.00,,,0.00,weatherlink.com 1.10,2013-03-12 07:50:00,
2013-03-12 01:05:00,49.3,48.0,30.12,SSE,152,3.0,6.0,95,0.00,,,0.00,weatherlink.com 1.10,2013-03-12 08:05:00,
2013-03-12 01:20:00,49.3,48.0,30.12,SW,221,2.0,5.0,95,0.00,,,0.00,weatherlink.com 1.10,2013-03-12 08:20:00,
2013-03-12 01:35:00,49.2,48.0,30.12,SE,142,5.0,7.0,95,0.00,,,0.00,weatherlink.com 1.10,2013-03-12 08:35:00,
2013-03-12 01:50:00,49.1,48.0,30.12,SE,146,4.0,7.0,95,0.00,,,0.00,weatherlink.com 1.10,2013-03-12 08:50:00,
2013-03-12 02:05:00,49.0,48.0,30.12,SSW,195,1.0,7.0,95,0.00,,,0.00,weatherlink.com 1.10,2013-03-12 09:05:00,
2013-03-12 02:20:00,48.9,48.0,30.12,SW,221,2.0,6.0,95,0.00,,,0.00,weatherlink.com 1.10,2013-03-12 09:20:00,
2013-03-12 02:35:00,48.8,48.0,30.11,South,171,1.0,6.0,95,0.00,,,0.00,weatherlink.com 1.10,2013-03-12 09:35:00,
2013-03-12 02:50:00,48.8,48.0,30.12,SE,136,3.0,6.0,95,0.00,,,0.00,weatherlink.com 1.10,2013-03-12 09:50:00,
2013-03-12 03:06:00,48.7,47.0,30.11,South,172,4.0,6.0,95,0.00,,,0.00,weatherlink.com 1.10,2013-03-12 10:06:00,
2013-03-12 03:36:00,48.7,48.0,30.11,SSW,197,0.0,6.0,96,0.00,,,0.00,weatherlink.com 1.10,2013-03-12 10:36:00,
2013-03-12 03:51:00,48.7,48.0,30.10,SSE,156,0.0,4.0,96,0.00,,,0.00,weatherlink.com 1.10,2013-03-12 10:51:00,
2013-03-12 04:06:00,48.6,48.0,30.10,SSE,165,0.0,7.0,96,0.00,,,0.00,weatherlink.com 1.10,2013-03-12 11:06:00,
2013-03-12 04:21:00,48.6,48.0,30.10,SSE,160,4.0,6.0,96,0.00,,,0.00,weatherlink.com 1.10,2013-03-12 11:21:00,
2013-03-12 04:36:00,48.5,48.0,30.10,SSE,167,1.0,6.0,96,0.00,,,0.00,weatherlink.com 1.10,2013-03-12 11:36:00,
2013-03-12 05:06:00,48.1,47.0,30.10,SSW,201,1.0,4.0,96,0.00,,,0.00,weatherlink.com 1.10,2013-03-12 12:06:00,
2013-03-12 05:21:00,47.7,47.0,30.10,WSW,239,0.0,3.0,96,0.00,,,0.00,weatherlink.com 1.10,2013-03-12 12:21:00,
2013-03-12 06:06:00,47.3,46.0,30.11,SSE,150,4.0,7.0,96,0.00,,,0.00,weatherlink.com 1.10,2013-03-12 13:06:00,
2013-03-12 06:21:00,47.4,46.0,30.11,ESE,123,1.0,4.0,96,0.00,,,0.00,weatherlink.com 1.10,2013-03-12 13:21:00,
2013-03-12 06:36:00,47.5,47.0,30.11,SE,134,1.0,5.0,96,0.00,,,0.00,weatherlink.com 1.10,2013-03-12 13:36:00,
2013-03-12 06:51:00,47.7,47.0,30.11,SE,145,1.0,5.0,96,0.00,,,0.00,weatherlink.com 1.10,2013-03-12 13:51:00,
2013-03-12 07:06:00,47.8,47.0,30.11,ESE,106,3.0,3.0,96,0.00,,,0.00,weatherlink.com 1.10,2013-03-12 14:06:00,
2013-03-12 07:21:00,47.6,47.0,30.11,SE,140,1.0,4.0,96,0.00,,,0.00,weatherlink.com 1.10,2013-03-12 14:21:00,
2013-03-12 07:36:00,47.5,47.0,30.11,SE,131,0.0,2.0,96,0.00,,,0.00,weatherlink.com 1.10,2013-03-12 14:36:00,
2013-03-12 07:51:00,47.5,47.0,30.12,ESE,119,0.0,1.0,96,0.00,,,0.00,weatherlink.com 1.10,2013-03-12 14:51:00,
2013-03-12 08:06:00,47.4,46.0,30.12,ESE,117,2.0,2.0,96,0.00,,,0.00,weatherlink.com 1.10,2013-03-12 15:06:00,
2013-03-12 08:21:00,47.7,47.0,30.12,SSE,156,0.0,2.0,97,0.00,,,0.00,weatherlink.com 1.10,2013-03-12 15:21:00,
2013-03-12 08:36:00,47.9,47.0,30.13,SE,145,1.0,3.0,96,0.00,,,0.00,weatherlink.com 1.10,2013-03-12 15:36:00,
2013-03-12 08:51:00,48.1,47.0,30.14,West,273,0.0,4.0,96,0.00,,,0.00,weatherlink.com 1.10,2013-03-12 15:51:00,
2013-03-12 09:06:00,48.5,48.0,30.14,SSW,212,0.0,2.0,97,0.00,,,0.00,weatherlink.com 1.10,2013-03-12 16:06:00,
2013-03-12 09:36:00,49.5,48.0,30.14,South,190,0.0,1.0,96,0.00,,,0.00,weatherlink.com 1.10,2013-03-12 16:36:00,
2013-03-12 09:51:00,50.1,49.0,30.15,SW,221,0.0,1.0,96,0.00,,,0.00,weatherlink.com 1.10,2013-03-12 16:51:00,
2013-03-12 10:06:00,50.4,49.0,30.14,West,278,0.0,3.0,95,0.00,,,0.00,weatherlink.com 1.10,2013-03-12 17:06:00,
2013-03-12 10:21:00,51.5,50.0,30.14,SSW,193,1.0,3.0,95,0.00,,,0.00,weatherlink.com 1.10,2013-03-12 17:21:00,
2013-03-12 10:51:00,54.2,51.0,30.14,West,270,3.0,3.0,88,0.00,,,0.00,weatherlink.com 1.10,2013-03-12 17:51:00,
2013-03-12 11:22:00,56.6,51.0,30.14,West,278,2.0,4.0,81,0.00,,,0.00,weatherlink.com 1.10,2013-03-12 18:22:00,
2013-03-12 11:37:00,57.6,52.0,30.14,South,180,3.0,4.0,80,0.00,,,0.00,weatherlink.com 1.10,2013-03-12 18:37:00,
2013-03-12 11:52:00,58.2,51.0,30.14,SSW,212,3.0,5.0,78,0.00,,,0.00,weatherlink.com 1.10,2013-03-12 18:52:00,
2013-03-12 12:07:00,58.6,51.0,30.13,WSW,257,1.0,5.0,77,0.00,,,0.00,weatherlink.com 1.10,2013-03-12 19:07:00,
2013-03-12 12:22:00,58.2,51.0,30.13,WSW,249,5.0,6.0,78,0.00,,,0.00,weatherlink.com 1.10,2013-03-12 19:22:00,
2013-03-12 12:37:00,58.9,52.0,30.12,West,270,4.0,5.0,77,0.00,,,0.00,weatherlink.com 1.10,2013-03-12 19:37:00,
2013-03-12 12:52:00,60.7,52.0,30.12,SSW,210,2.0,5.0,74,0.00,,,0.00,weatherlink.com 1.10,2013-03-12 19:52:00,
2013-03-12 13:07:00,60.8,52.0,30.12,SW,225,3.0,5.0,74,0.00,,,0.00,weatherlink.com 1.10,2013-03-12 20:07:00,
2013-03-12 13:22:00,61.9,53.0,30.11,NW,307,3.0,6.0,73,0.00,,,0.00,weatherlink.com 1.10,2013-03-12 20:22:00,
2013-03-12 13:37:00,62.2,53.0,30.11,SSW,201,2.0,6.0,73,0.00,,,0.00,weatherlink.com 1.10,2013-03-12 20:37:00,
2013-03-12 13:52:00,64.1,54.0,30.10,SW,231,2.0,6.0,70,0.00,,,0.00,weatherlink.com 1.10,2013-03-12 20:52:00,
2013-03-12 14:07:00,65.5,54.0,30.09,WSW,257,2.0,6.0,66,0.00,,,0.00,weatherlink.com 1.10,2013-03-12 21:07:00,
2013-03-12 14:22:00,65.6,53.0,30.08,South,190,1.0,6.0,65,0.00,,,0.00,weatherlink.com 1.10,2013-03-12 21:22:00,
2013-03-12 14:37:00,65.3,54.0,30.08,SSW,205,4.0,6.0,66,0.00,,,0.00,weatherlink.com 1.10,2013-03-12 21:37:00,
2013-03-12 14:52:00,66.0,53.0,30.07,SW,226,5.0,6.0,64,0.00,,,0.00,weatherlink.com 1.10,2013-03-12 21:52:00,
2013-03-12 15:07:00,65.7,54.0,30.07,SSW,195,4.0,5.0,65,0.00,,,0.00,weatherlink.com 1.10,2013-03-12 22:07:00,
2013-03-12 15:22:00,66.6,53.0,30.07,WSW,252,2.0,7.0,63,0.00,,,0.00,weatherlink.com 1.10,2013-03-12 22:22:00,
2013-03-12 15:37:00,66.5,53.0,30.06,SSW,210,5.0,7.0,63,0.00,,,0.00,weatherlink.com 1.10,2013-03-12 22:37:00,
2013-03-12 15:52:00,66.7,54.0,30.06,South,172,3.0,7.0,63,0.00,,,0.00,weatherlink.com 1.10,2013-03-12 22:52:00,
2013-03-12 16:07:00,65.6,53.0,30.07,South,186,6.0,8.0,64,0.00,,,0.00,weatherlink.com 1.10,2013-03-12 23:07:00,
2013-03-12 16:22:00,66.0,54.0,30.06,SW,226,4.0,8.0,65,0.00,,,0.00,weatherlink.com 1.10,2013-03-12 23:22:00,
2013-03-12 16:37:00,66.4,54.0,30.06,SSE,155,4.0,7.0,64,0.00,,,0.00,weatherlink.com 1.10,2013-03-12 23:37:00,
2013-03-12 16:52:00,65.7,54.0,30.06,SE,133,5.0,8.0,65,0.00,,,0.00,weatherlink.com 1.10,2013-03-12 23:52:00,
2013-03-12 17:07:00,65.8,54.0,30.06,SSE,155,6.0,7.0,65,0.00,,,0.00,weatherlink.com 1.10,2013-03-13 00:07:00,
2013-03-12 17:22:00,65.2,53.0,30.06,South,181,1.0,9.0,66,0.00,,,0.00,weatherlink.com 1.10,2013-03-13 00:22:00,
2013-03-12 17:37:00,65.0,54.0,30.06,SSW,212,4.0,7.0,67,0.00,,,0.00,weatherlink.com 1.10,2013-03-13 00:37:00,
2013-03-12 17:52:00,64.5,53.0,30.06,South,172,6.0,7.0,67,0.00,,,0.00,weatherlink.com 1.10,2013-03-13 00:52:00,
2013-03-12 18:07:00,64.5,53.0,30.06,WSW,247,3.0,5.0,67,0.00,,,0.00,weatherlink.com 1.10,2013-03-13 01:07:00,
2013-03-12 18:22:00,65.1,54.0,30.06,SSW,207,0.0,4.0,67,0.00,,,0.00,weatherlink.com 1.10,2013-03-13 01:22:00,
2013-03-12 18:37:00,66.2,54.0,30.06,SSE,167,0.0,3.0,64,0.00,,,0.00,weatherlink.com 1.10,2013-03-13 01:37:00,
2013-03-12 18:52:00,65.2,53.0,30.06,SSW,201,0.0,2.0,65,0.00,,,0.00,weatherlink.com 1.10,2013-03-13 01:52:00,
2013-03-12 19:08:00,62.9,53.0,30.06,SW,235,1.0,1.0,69,0.00,,,0.00,weatherlink.com 1.10,2013-03-13 02:08:00,
2013-03-12 19:23:00,59.3,51.0,30.07,SSW,200,0.0,5.0,75,0.00,,,0.00,weatherlink.com 1.10,2013-03-13 02:23:00,
2013-03-12 19:38:00,57.6,52.0,30.07,SW,219,0.0,2.0,80,0.00,,,0.00,weatherlink.com 1.10,2013-03-13 02:38:00,
2013-03-12 19:53:00,56.5,51.0,30.07,SSE,150,0.0,2.0,82,0.00,,,0.00,weatherlink.com 1.10,2013-03-13 02:53:00,
2013-03-12 20:08:00,56.1,51.0,30.07,SSW,194,0.0,1.0,83,0.00,,,0.00,weatherlink.com 1.10,2013-03-13 03:08:00,
2013-03-12 20:23:00,55.3,51.0,30.08,South,173,0.0,3.0,84,0.00,,,0.00,weatherlink.com 1.10,2013-03-13 03:23:00,
2013-03-12 20:38:00,53.4,50.0,30.09,SW,231,1.0,5.0,87,0.00,,,0.00,weatherlink.com 1.10,2013-03-13 03:38:00,
2013-03-12 20:53:00,52.4,49.0,30.09,SE,146,2.0,6.0,89,0.00,,,0.00,weatherlink.com 1.10,2013-03-13 03:53:00,
2013-03-12 21:08:00,52.1,49.0,30.09,SSE,165,0.0,4.0,90,0.00,,,0.00,weatherlink.com 1.10,2013-03-13 04:08:00,
2013-03-12 21:23:00,51.9,49.0,30.10,SSW,203,0.0,3.0,90,0.00,,,0.00,weatherlink.com 1.10,2013-03-13 04:23:00,
2013-03-12 21:38:00,51.6,49.0,30.09,SSE,155,0.0,1.0,91,0.00,,,0.00,weatherlink.com 1.10,2013-03-13 04:38:00,
2013-03-12 21:53:00,51.4,49.0,30.09,SSE,156,0.0,2.0,91,0.00,,,0.00,weatherlink.com 1.10,2013-03-13 04:53:00,
2013-03-12 22:08:00,50.9,48.0,30.10,SSE,162,0.0,4.0,91,0.00,,,0.00,weatherlink.com 1.10,2013-03-13 05:08:00,
2013-03-12 22:23:00,50.6,48.0,30.10,SSW,207,0.0,2.0,92,0.00,,,0.00,weatherlink.com 1.10,2013-03-13 05:23:00,
2013-03-12 22:38:00,50.4,49.0,30.10,SSE,167,1.0,3.0,93,0.00,,,0.00,weatherlink.com 1.10,2013-03-13 05:38:00,
2013-03-12 22:53:00,50.5,49.0,30.11,SSE,155,1.0,6.0,93,0.00,,,0.00,weatherlink.com 1.10,2013-03-13 05:53:00,
2013-03-12 23:08:00,50.3,48.0,30.11,South,184,1.0,6.0,93,0.00,,,0.00,weatherlink.com 1.10,2013-03-13 06:08:00,
2013-03-12 23:23:00,50.0,48.0,30.11,SSW,200,1.0,3.0,93,0.00,,,0.00,weatherlink.com 1.10,2013-03-13 06:23:00,
2013-03-12 23:38:00,49.9,48.0,30.11,SE,129,1.0,4.0,94,0.00,,,0.00,weatherlink.com 1.10,2013-03-13 06:38:00,
2013-03-12 23:53:00,49.7,48.0,30.11,South,188,1.0,2.0,94,0.00,,,0.00,weatherlink.com 1.10,2013-03-13 06:53:00,